Sacramento, CA (94236)

6:26 AM PST on November 26, 2014 (GMT -0800)
Land Park | Change Station
CLOSE
Current Station
Personal Weather Station
Location: Sacramento, CA
Elevation: 23 ft
Nearby Weather Stations
Active Advisory: Special Statement

Elev 23 ft 38.56 °N, 121.49 °W | Updated 6 minutes ago

Clear
Clear
39.2 °F
Feels Like 39 °F
N
0.0
Wind Variable Wind from SSW

Today
High -- | Low -- °F
--% Chance of Precip.
Yesterday
High -- | Low -- °F
Precip. -- in
6:59 AM 4:46 PM
Waxing Crescent, 20% visible
Pressure 30.34 in
Visibility 5.0 miles
Clouds Clear
Windchill 39 °F
Dew Point 39 °F
Humidity 99%
Rainfall 0.00 in
Snow Depth Not available.
UV 0 out of 12
Pollen 1.40 out of 12
Air Quality Not available.
Flu Activity Not available.
METAR KSAC 261353Z AUTO 00000KT 5SM BR CLR 04/03 A3034 RMK AO2 SLP274 T00440033 TSNO

More Conditions Fewer Conditions

Pressure 30.34 in
Visibility 5.0 miles
Clouds Clear
Windchill 39 °F
Dew Point 39 °F
Humidity 99%
Rainfall 0.00 in
Snow Depth Not available.
UV 0 out of 12
Pollen 1.40 out of 12
Air Quality Not available.
Flu Activity Not available.
METAR KSAC 261353Z AUTO 00000KT 5SM BR CLR 04/03 A3034 RMK AO2 SLP274 T00440033 TSNO

More Conditions Fewer Conditions

10-Day Weather Forecast

Almanac

Astronomy

Nov. 26, 2014 Rise Set
Actual Time
Civil Twilight
Nautical Twilight
Astronomical Twilight
Moon
Length of Visible Light
Length of Day
Tomorrow will be .
, % of the Moon is Illuminated

Today's Extremes

State Highs State Lows

Community

WunderPhotos

Upload Photos

1,773,752 photos uploaded!

WunderBlogs® & News

Nearby

Air Quality

  Air Quality AQ Index Pollutant
Not available.

Snow Depth

Station Depth Elevation

Earthquake Activity

City Distance Mag. Time & Date
Minimum magnitude displayed is 2.5.

Coastal Water Temperatures

Place Temperature

Nearby Weather Stations